This is the latest recevied weather packets stored in our database for station/object OK2JCZ-6. If no packets are shown the sender has not sent any weather packets the latest 10 day(s).
| Time | Temp. | Humidity | Pressure | Rain* | Wind** | Luminosity | Snow |
|---|---|---|---|---|---|---|---|
| 1777199075 | 11.67° C | 35% | 1021.3 hPa | 0 mm | - | - | - |
| 1777197275 | 10.56° C | 35% | 1021.3 hPa | 0 mm | - | - | - |
| 1777196975 | 10.56° C | 36% | 1021.4 hPa | 0 mm | - | - | - |
| 1777196375 | 10° C | 36% | 1021.2 hPa | 0 mm | - | - | - |
| 1777194875 | 9.44° C | 36% | 1021.2 hPa | 0 mm | - | - | - |
| 1777194575 | 10.56° C | 36% | 1021.1 hPa | 0 mm | - | - | - |
| 1777193975 | 10.56° C | 37% | 1021.2 hPa | 0 mm | - | - | - |
| 1777193675 | 10.56° C | 35% | 1021.1 hPa | 0 mm | - | - | - |
| 1777193375 | 6.67° C | 36% | 1021 hPa | 0 mm | - | - | - |
| 1777192775 | 11.11° C | 37% | 1019.9 hPa | 0 mm | - | - | - |
| 1777192475 | 11.11° C | 37% | 1021 hPa | 0 mm | - | - | - |
| 1777192175 | 10° C | 36% | 1020.9 hPa | 0 mm | - | - | - |
| 1777191275 | - | 42% | 990.2 hPa | 0 mm | - | - | - |
| 1777190975 | -23.33° C | 62% | 922.5 hPa | 0 mm | - | - | - |
| 1777190375 | -23.33° C | 62% | 922.5 hPa | 0 mm | - | - | - |
| 1777190075 | -23.33° C | 62% | 922.5 hPa | 0 mm | - | - | - |
| 1777189775 | -23.33° C | 62% | 922.5 hPa | 0 mm | - | - | - |
| 1777189477 | -23.33° C | 62% | 922.5 hPa | 0 mm | - | - | - |
| 1777189175 | -23.33° C | 62% | 922.5 hPa | 0 mm | - | - | - |
| 1777188575 | -23.33° C | 62% | 922.5 hPa | 0 mm | - | - | - |
| 1777188275 | -23.33° C | 62% | 922.5 hPa | 0 mm | - | - | - |
| 1777187974 | -23.33° C | 62% | 922.5 hPa | 0 mm | - | - | - |
| 1777187675 | -23.33° C | 81% | 915.1 hPa | 0 mm | - | - | - |
| 1777186777 | 7.78° C | 42% | 1020.1 hPa | 0 mm | - | - | - |
| 1777186175 | 7.78° C | 42% | 1020 hPa | 0 mm | - | - | - |
* Rain latest hour (hover to see other rain measurements)
** Current wind speed in m/s (hover to see current wind gust speed)